Time;durP1;ratioP1;P1;durP2;ratioP2;P2;SDS_P1;SDS_P2;PMS_P1;PMS_P2;Temp;Humidity;BMP_temperature;BMP_pressure;BME280_temperature;BME280_humidity;BME280_pressure;Samples;Min_cycle;Max_cycle;Signal;HPM_P1;HPM_P2
2021/11/28 00:00:45;;;;;;;4.57;2.15;;;;;;;0.29;100.00;99592.69;5013703;28;20040;-81
2021/11/28 00:03:13;;;;;;;3.08;2.45;;;;;;;0.30;100.00;99597.84;5015468;28;20037;-81
2021/11/28 00:05:39;;;;;;;2.83;2.05;;;;;;;-0.20;100.00;99527.28;5013902;28;20455;-81
2021/11/28 00:08:22;;;;;;;5.03;2.25;;;;;;;0.25;100.00;99591.38;4998796;28;20121;-81
2021/11/28 00:14:05;;;;;;;2.53;1.90;;;;;;;0.14;100.00;99576.66;4958130;29;20047;-81
2021/11/28 00:16:30;;;;;;;3.90;2.13;;;;;;;0.40;100.00;99590.59;4996238;28;20045;-81
2021/11/28 00:18:56;;;;;;;3.95;2.00;;;;;;;0.45;100.00;99582.16;5022029;28;20499;-81
2021/11/28 00:21:22;;;;;;;3.00;1.83;;;;;;;0.37;100.00;99582.97;5022551;28;20040;-81
2021/11/28 00:23:47;;;;;;;2.40;1.55;;;;;;;0.29;100.00;99566.25;5017276;28;20048;-82
2021/11/28 00:26:14;;;;;;;2.53;1.85;;;;;;;0.18;100.00;99557.63;5016473;28;20022;-80
2021/11/28 00:28:40;;;;;;;2.80;1.77;;;;;;;0.26;100.00;99575.31;5016633;28;20037;-82
2021/11/28 00:31:06;;;;;;;4.03;1.75;;;;;;;0.26;100.00;99575.31;4997758;28;20041;-82
2021/11/28 00:33:31;;;;;;;3.78;1.90;;;;;;;0.25;100.00;99578.16;5020928;28;20030;-81
2021/11/28 00:35:57;;;;;;;2.75;1.90;;;;;;;0.23;100.00;99580.94;5029533;28;20006;-82
2021/11/28 00:38:22;;;;;;;3.53;1.85;;;;;;;0.21;100.00;99567.06;5023273;28;20044;-82
2021/11/28 00:40:48;;;;;;;3.15;1.90;;;;;;;0.07;100.00;99543.91;5017268;28;20072;-82
2021/11/28 00:43:15;;;;;;;3.78;1.92;;;;;;;0.26;100.00;99585.91;5017988;28;20025;-82
2021/11/28 00:45:41;;;;;;;4.90;2.00;;;;;;;0.22;100.00;99580.13;5018367;28;20019;-82
2021/11/28 00:48:06;;;;;;;4.10;2.05;;;;;;;0.31;100.00;99577.50;5016605;28;20065;-82
2021/11/28 00:50:43;;;;;;;4.70;2.00;;;;;;;0.25;100.00;99571.03;5015570;28;20118;-82
2021/11/28 00:53:20;;;;;;;2.28;2.00;;;;;;;0.30;100.00;99586.41;5015114;28;20447;-82
2021/11/28 00:55:45;;;;;;;2.95;1.70;;;;;;;0.28;100.00;99583.13;5015917;28;20045;-82
2021/11/28 00:58:11;;;;;;;3.55;1.70;;;;;;;0.22;100.00;99589.88;5016585;28;20465;-82
2021/11/28 01:00:38;;;;;;;2.58;1.70;;;;;;;0.30;100.00;99589.91;5020845;28;20029;-80
2021/11/28 01:03:04;;;;;;;2.92;2.08;;;;;;;0.31;100.00;99590.72;5007589;28;20062;-82
2021/11/28 01:05:31;;;;;;;3.42;1.90;;;;;;;0.26;100.00;99579.78;5017163;28;20087;-82
2021/11/28 01:07:56;;;;;;;4.03;1.80;;;;;;;0.31;100.00;99582.78;5016620;28;20032;-82
2021/11/28 01:10:22;;;;;;;3.97;1.85;;;;;;;0.33;100.00;99586.09;5018014;28;20088;-82
2021/11/28 01:12:49;;;;;;;2.20;1.58;;;;;;;0.34;100.00;99585.13;5016570;28;20061;-83
2021/11/28 01:15:14;;;;;;;2.85;2.05;;;;;;;0.08;100.00;99545.56;5018541;28;20121;-81
2021/11/28 01:17:40;;;;;;;3.40;1.60;;;;;;;0.30;100.00;99584.63;5016214;28;20069;-82
2021/11/28 01:20:09;;;;;;;5.32;1.92;;;;;;;0.28;100.00;99573.34;5017120;28;20084;-81
2021/11/28 01:22:34;;;;;;;3.97;1.60;;;;;;;0.14;100.00;99566.06;5014606;28;20049;-81
2021/11/28 01:25:00;;;;;;;3.30;1.92;;;;;;;0.27;100.00;99582.28;5016646;28;20060;-81
2021/11/28 01:27:25;;;;;;;4.78;2.17;;;;;;;0.31;100.00;99588.91;5016960;28;20025;-81
2021/11/28 01:29:52;;;;;;;4.40;1.90;;;;;;;-0.02;100.00;99527.19;5012979;28;20117;-81
2021/11/28 01:32:18;;;;;;;3.67;1.70;;;;;;;0.33;100.00;99586.09;5016951;28;20061;-81
2021/11/28 01:34:43;;;;;;;4.00;1.92;;;;;;;0.26;100.00;99585.09;5013702;28;20033;-81
2021/11/28 01:37:09;;;;;;;3.78;1.77;;;;;;;0.30;100.00;99570.53;4999243;28;20045;-81
2021/11/28 01:39:35;;;;;;;2.35;1.88;;;;;;;0.20;100.00;99565.41;5000275;28;20121;-81
2021/11/28 01:42:00;;;;;;;4.63;2.20;;;;;;;0.37;100.00;99588.25;5025926;28;20112;-82
2021/11/28 01:44:26;;;;;;;3.28;1.98;;;;;;;0.29;100.00;99560.94;5015587;28;20033;-81
2021/11/28 01:46:51;;;;;;;4.32;1.77;;;;;;;0.27;100.00;99574.34;5015674;28;20049;-82
2021/11/28 01:49:20;;;;;;;3.17;1.70;;;;;;;0.20;100.00;99571.53;4981478;28;20034;-81
2021/11/28 01:51:46;;;;;;;3.75;2.20;;;;;;;0.24;100.00;99569.38;5016985;28;20029;-81
2021/11/28 01:54:13;;;;;;;4.13;1.67;;;;;;;0.30;100.00;99576.69;4997719;28;20030;-82
2021/11/28 01:56:41;;;;;;;4.47;2.20;;;;;;;0.33;100.00;99579.00;5015342;28;20117;-81
2021/11/28 01:59:07;;;;;;;5.10;2.20;;;;;;;0.34;100.00;99578.00;5013631;28;20376;-81
2021/11/28 02:01:34;;;;;;;5.25;2.00;;;;;;;0.28;100.00;99573.34;5014475;28;20121;-81
2021/11/28 02:04:01;;;;;;;6.05;2.03;;;;;;;0.39;100.00;99575.69;5015516;28;20045;-81
2021/11/28 02:06:27;;;;;;;4.10;2.10;;;;;;;0.37;100.00;99579.50;5017326;28;20108;-82
2021/11/28 02:08:52;;;;;;;3.17;2.03;;;;;;;0.44;100.00;99576.03;5003336;28;20057;-82
2021/11/28 02:11:18;;;;;;;4.60;2.17;;;;;;;0.39;100.00;99577.50;5017374;28;20054;-82
2021/11/28 02:13:45;;;;;;;3.38;2.10;;;;;;;0.41;100.00;99578.19;5021003;28;20074;-82
2021/11/28 02:16:12;;;;;;;3.92;2.00;;;;;;;0.39;100.00;99570.38;5016115;28;20034;-82
2021/11/28 02:18:38;;;;;;;5.30;2.35;;;;;;;0.37;100.00;99572.38;5003328;28;20053;-82
2021/11/28 02:21:06;;;;;;;4.47;1.88;;;;;;;0.39;100.00;99566.91;5020088;28;20444;-82
2021/11/28 02:23:32;;;;;;;1.70;1.35;;;;;;;0.38;100.00;99565.28;5018147;28;20021;-82
2021/11/28 02:26:01;;;;;;;5.00;1.90;;;;;;;0.18;100.00;99546.22;5018843;28;20018;-82
2021/11/28 02:28:27;;;;;;;2.90;2.22;;;;;;;0.27;100.00;99555.00;5016888;28;20053;-82
2021/11/28 02:30:53;;;;;;;4.05;2.30;;;;;;;0.32;100.00;99564.09;5002560;28;20041;-82
2021/11/28 02:33:18;;;;;;;2.90;1.80;;;;;;;0.12;100.00;99531.00;5017920;28;20030;-81
2021/11/28 02:35:45;;;;;;;3.30;1.95;;;;;;;0.16;100.00;99549.03;5018133;28;20030;-82
2021/11/28 02:38:11;;;;;;;3.88;1.88;;;;;;;0.17;100.00;99545.41;4999446;28;20083;-82
2021/11/28 02:40:40;;;;;;;5.10;2.40;;;;;;;0.27;100.00;99550.56;5018540;28;20033;-82
2021/11/28 02:43:05;;;;;;;5.45;2.20;;;;;;;0.33;100.00;99565.78;5018712;28;20057;-81
2021/11/28 02:45:32;;;;;;;5.07;1.73;;;;;;;0.37;100.00;99561.81;5017091;28;20447;-81
2021/11/28 02:48:00;;;;;;;4.70;2.05;;;;;;;0.29;100.00;99561.78;5031720;28;20056;-82
2021/11/28 02:50:27;;;;;;;6.03;2.38;;;;;;;0.35;100.00;99562.94;5018544;28;20432;-82
2021/11/28 02:52:55;;;;;;;4.43;2.42;;;;;;;0.28;100.00;99554.00;5002125;28;20038;-81
2021/11/28 02:55:24;;;;;;;5.15;1.90;;;;;;;0.27;100.00;99560.31;5016893;28;20045;-82
2021/11/28 02:57:53;;;;;;;3.92;2.10;;;;;;;0.31;100.00;99557.16;5020256;28;20408;-83
2021/11/28 03:00:19;;;;;;;6.13;2.35;;;;;;;0.29;100.00;99553.84;5018433;28;20131;-82
2021/11/28 03:02:45;;;;;;;4.00;2.20;;;;;;;0.03;100.00;99529.34;5019808;28;20026;-81
2021/11/28 03:05:12;;;;;;;3.05;1.92;;;;;;;0.28;100.00;99561.94;5018308;28;20033;-82
2021/11/28 03:07:39;;;;;;;4.68;2.53;;;;;;;0.24;100.00;99545.59;5016524;28;20026;-82
2021/11/28 03:10:26;;;;;;;3.95;2.20;;;;;;;0.20;100.00;99550.38;5022162;28;20025;-81
2021/11/28 03:12:52;;;;;;;4.72;2.13;;;;;;;0.27;100.00;99558.47;5033474;28;20046;-82
2021/11/28 03:15:17;;;;;;;3.90;1.80;;;;;;;0.24;100.00;99550.88;5028409;28;20048;-82
2021/11/28 03:17:43;;;;;;;5.22;2.08;;;;;;;0.22;100.00;99548.38;5003844;28;20168;-82
2021/11/28 03:20:09;;;;;;;4.90;2.58;;;;;;;0.14;100.00;99535.16;5020587;28;20034;-81
2021/11/28 03:22:34;;;;;;;7.78;2.40;;;;;;;0.21;100.00;99551.19;5024445;28;20045;-81
2021/11/28 03:25:09;;;;;;;5.25;2.40;;;;;;;0.02;100.00;99511.81;5019062;28;20038;-82
2021/11/28 03:27:35;;;;;;;5.18;2.63;;;;;;;0.26;100.00;99562.09;5019533;28;20026;-82
2021/11/28 03:30:00;;;;;;;6.57;2.47;;;;;;;0.20;100.00;99562.78;5018777;28;20532;-82
2021/11/28 03:32:26;;;;;;;5.13;2.47;;;;;;;-0.08;100.00;99507.50;5002124;28;20030;-83
2021/11/28 03:34:51;;;;;;;7.10;2.50;;;;;;;0.20;100.00;99552.19;5020268;28;20045;-82
2021/11/28 03:37:23;;;;;;;3.05;2.17;;;;;;;0.07;100.00;99526.22;5003748;28;20125;-82
2021/11/28 03:39:48;;;;;;;5.47;2.83;;;;;;;0.09;100.00;99539.25;5002984;28;20029;-83
2021/11/28 03:42:14;;;;;;;8.73;2.72;;;;;;;0.32;100.00;99560.63;5004701;28;20103;-82
2021/11/28 03:44:39;;;;;;;5.30;2.25;;;;;;;0.13;100.00;99535.28;5014447;28;20061;-82
2021/11/28 03:47:05;;;;;;;4.15;2.30;;;;;;;0.17;100.00;99545.41;5017986;28;20038;-83
2021/11/28 03:49:30;;;;;;;5.55;2.38;;;;;;;0.12;100.00;99536.28;5000103;28;20038;-82
2021/11/28 03:51:57;;;;;;;7.40;2.67;;;;;;;0.03;100.00;99516.09;5026486;28;20018;-83
2021/11/28 03:54:22;;;;;;;5.10;2.88;;;;;;;0.30;100.00;99558.16;5026157;28;20030;-83
2021/11/28 03:56:49;;;;;;;5.32;2.40;;;;;;;0.22;100.00;99564.25;5024692;28;20536;-82
2021/11/28 03:59:15;;;;;;;5.10;2.63;;;;;;;0.25;100.00;99552.50;5019431;28;20029;-81
2021/11/28 04:01:41;;;;;;;4.40;2.20;;;;;;;0.22;100.00;99555.50;5034362;28;20036;-83
2021/11/28 04:04:07;;;;;;;3.88;2.38;;;;;;;0.19;100.00;99551.34;5003082;28;20030;-82
2021/11/28 04:06:33;;;;;;;3.83;2.33;;;;;;;0.22;100.00;99555.50;5018926;28;20014;-83
2021/11/28 04:08:58;;;;;;;4.13;2.10;;;;;;;0.19;100.00;99553.16;5020658;28;20503;-82
2021/11/28 04:11:23;;;;;;;4.65;2.35;;;;;;;0.18;100.00;99552.34;5027664;28;20046;-83
2021/11/28 04:13:49;;;;;;;5.68;2.28;;;;;;;0.17;100.00;99555.16;5030758;28;20035;-82
2021/11/28 04:16:14;;;;;;;4.07;2.28;;;;;;;0.19;100.00;99553.16;5030286;28;20048;-83
2021/11/28 04:18:40;;;;;;;6.32;2.75;;;;;;;0.21;100.00;99549.38;5028016;28;20097;-84
2021/11/28 04:21:06;;;;;;;7.07;2.28;;;;;;;0.18;100.00;99543.59;5031581;28;20026;-83
2021/11/28 04:23:31;;;;;;;4.72;1.90;;;;;;;0.11;100.00;99537.28;5029581;28;20053;-83
2021/11/28 04:25:57;;;;;;;4.43;2.25;;;;;;;0.14;100.00;99555.50;5014746;28;20026;-84
2021/11/28 04:28:22;;;;;;;5.18;2.47;;;;;;;0.11;100.00;99538.13;5033182;28;20109;-82
2021/11/28 04:30:48;;;;;;;4.97;2.63;;;;;;;0.19;100.00;99550.53;5046032;28;20049;-82
2021/11/28 04:33:15;;;;;;;4.68;2.60;;;;;;;0.14;100.00;99553.66;5014422;28;20117;-82
2021/11/28 04:35:43;;;;;;;3.50;2.38;;;;;;;0.19;100.00;99548.69;5031114;28;20044;-82
2021/11/28 04:38:09;;;;;;;3.65;2.25;;;;;;;0.18;100.00;99549.69;5029656;28;20034;-82
2021/11/28 04:40:34;;;;;;;5.85;2.58;;;;;;;0.16;100.00;99545.56;5031888;28;20029;-83
2021/11/28 04:43:00;;;;;;;5.47;2.50;;;;;;;0.12;100.00;99544.22;5014517;28;20045;-84
2021/11/28 04:45:25;;;;;;;4.30;2.35;;;;;;;0.14;100.00;99547.56;5030106;28;20051;-83
2021/11/28 04:47:51;;;;;;;3.83;2.10;;;;;;;0.05;100.00;99535.28;5031020;28;20049;-83
2021/11/28 04:50:16;;;;;;;5.93;2.65;;;;;;;0.06;100.00;99539.59;5028548;28;20093;-82
2021/11/28 04:52:43;;;;;;;4.70;2.35;;;;;;;0.13;100.00;99551.16;5014548;28;20037;-83
2021/11/28 04:55:12;;;;;;;5.43;2.13;;;;;;;0.02;100.00;99540.91;5028494;28;20015;-83
2021/11/28 04:57:38;;;;;;;5.75;2.70;;;;;;;0.11;100.00;99555.81;5036154;28;20026;-83
2021/11/28 05:00:08;;;;;;;4.88;2.20;;;;;;;0.14;100.00;99543.09;5030243;28;20049;-83
2021/11/28 05:02:34;;;;;;;5.80;2.40;;;;;;;0.13;100.00;99545.88;5030611;28;20030;-83
2021/11/28 05:04:59;;;;;;;4.97;2.10;;;;;;;-0.07;100.00;99526.81;5029441;28;20065;-84
2021/11/28 05:07:24;;;;;;;6.03;2.78;;;;;;;0.11;100.00;99555.81;5031523;28;20033;-83
2021/11/28 05:09:51;;;;;;;6.25;2.60;;;;;;;0.16;100.00;99553.50;5032949;28;20033;-84
2021/11/28 05:12:16;;;;;;;4.97;2.30;;;;;;;0.11;100.00;99550.53;5033609;28;20058;-83
2021/11/28 05:14:43;;;;;;;3.55;2.15;;;;;;;-0.01;100.00;99531.47;5033392;28;20030;-84
2021/11/28 05:17:08;;;;;;;5.15;2.35;;;;;;;0.05;100.00;99543.22;5032512;28;20061;-82
2021/11/28 05:19:34;;;;;;;3.97;2.28;;;;;;;0.04;100.00;99547.69;5031507;28;20034;-83
2021/11/28 05:22:01;;;;;;;3.13;2.10;;;;;;;0.04;100.00;99539.75;5033478;28;20006;-84
2021/11/28 05:24:26;;;;;;;4.47;2.00;;;;;;;0.08;100.00;99548.19;5016954;28;20026;-84
2021/11/28 05:26:53;;;;;;;5.78;1.98;;;;;;;0.07;100.00;99552.66;5031355;28;20038;-83
2021/11/28 05:29:19;;;;;;;4.40;2.28;;;;;;;0.00;100.00;99538.44;5033082;28;20028;-83
2021/11/28 05:31:44;;;;;;;5.38;2.20;;;;;;;0.12;100.00;99553.00;5030858;28;20098;-83
2021/11/28 05:34:10;;;;;;;5.03;2.05;;;;;;;0.11;100.00;99555.81;5031874;28;20034;-82
2021/11/28 05:36:35;;;;;;;3.97;1.98;;;;;;;0.11;100.00;99551.34;5031994;28;20107;-83
2021/11/28 05:39:03;;;;;;;3.47;1.90;;;;;;;0.12;100.00;99560.91;5030149;28;20039;-83
2021/11/28 05:41:28;;;;;;;7.40;2.22;;;;;;;0.13;100.00;99561.75;5032372;28;20029;-83
2021/11/28 05:43:54;;;;;;;3.35;2.20;;;;;;;0.13;100.00;99559.09;5032546;28;20041;-84
2021/11/28 05:46:19;;;;;;;3.63;1.95;;;;;;;0.22;100.00;99568.72;5029517;28;20029;-83
2021/11/28 05:48:45;;;;;;;3.60;2.00;;;;;;;0.08;100.00;99550.84;5030458;28;20084;-83
2021/11/28 05:51:10;;;;;;;5.25;2.08;;;;;;;0.07;100.00;99550.03;5016764;28;20038;-83
2021/11/28 05:53:36;;;;;;;4.35;2.15;;;;;;;0.21;100.00;99564.41;5036312;28;20036;-83
2021/11/28 05:56:02;;;;;;;3.25;1.60;;;;;;;0.08;100.00;99541.09;5036459;28;20037;-83
2021/11/28 05:58:27;;;;;;;4.07;2.15;;;;;;;0.08;100.00;99542.91;5036165;28;20082;-83
2021/11/28 06:00:53;;;;;;;7.43;1.83;;;;;;;0.08;100.00;99553.50;5037522;28;20041;-83
2021/11/28 06:03:20;;;;;;;2.88;1.88;;;;;;;0.15;100.00;99567.72;5039236;28;20073;-83
2021/11/28 06:05:47;;;;;;;4.07;2.20;;;;;;;0.23;100.00;99567.72;5037242;28;20029;-82
2021/11/28 06:08:12;;;;;;;3.17;1.80;;;;;;;0.29;100.00;99569.72;5037078;28;20030;-83
2021/11/28 06:10:38;;;;;;;5.22;1.90;;;;;;;0.26;100.00;99575.31;5021569;28;20024;-84
2021/11/28 06:13:03;;;;;;;6.15;2.17;;;;;;;0.21;100.00;99570.53;5037182;28;20046;-84
2021/11/28 06:15:29;;;;;;;4.10;1.98;;;;;;;0.19;100.00;99569.03;5019566;28;20118;-82
2021/11/28 06:17:54;;;;;;;3.95;1.80;;;;;;;0.09;100.00;99566.53;5037254;28;20014;-83
2021/11/28 06:20:20;;;;;;;4.80;2.00;;;;;;;0.22;100.00;99574.00;5036688;28;20056;-83
2021/11/28 06:22:45;;;;;;;2.33;1.55;;;;;;;0.21;100.00;99577.66;5038722;28;20024;-84
2021/11/28 06:25:12;;;;;;;5.18;1.88;;;;;;;0.22;100.00;99568.72;5039552;28;20466;-83
2021/11/28 06:27:39;;;;;;;3.90;1.90;;;;;;;0.11;100.00;99556.63;5039423;28;20041;-85
2021/11/28 06:30:06;;;;;;;4.93;1.88;;;;;;;0.25;100.00;99578.97;5040875;28;20029;-83
2021/11/28 06:32:32;;;;;;;3.42;1.63;;;;;;;0.23;100.00;99578.28;5040821;28;20006;-83
2021/11/28 06:34:58;;;;;;;2.28;1.60;;;;;;;0.22;100.00;99574.00;5022480;28;20030;-84
2021/11/28 06:37:25;;;;;;;3.55;1.80;;;;;;;0.06;100.00;99569.50;5038221;28;20044;-83
2021/11/28 06:39:52;;;;;;;5.63;1.80;;;;;;;0.20;100.00;99576.00;5039540;28;20030;-84
2021/11/28 06:42:17;;;;;;;3.00;2.05;;;;;;;0.14;100.00;99581.94;5036712;28;20034;-83
2021/11/28 06:44:43;;;;;;;4.32;1.92;;;;;;;0.17;100.00;99589.56;5038341;28;20021;-84
2021/11/28 07:02:39;;;;;;;4.65;1.70;;;;;;;-1.33;100.00;99388.53;5880104;23;20045;-85
2021/11/28 07:05:05;;;;;;;4.20;1.85;;;;;;;0.11;100.00;99598.13;5019374;28;20054;-84
2021/11/28 07:07:31;;;;;;;4.45;1.90;;;;;;;0.11;100.00;99614.00;5020523;28;20022;-86
2021/11/28 07:09:57;;;;;;;3.38;1.63;;;;;;;-1.03;100.00;99450.53;5561899;23;21021;-82
2021/11/28 07:12:23;;;;;;;3.42;1.77;;;;;;;-1.38;100.00;99388.19;5444238;23;20099;-85
2021/11/28 07:14:50;;;;;;;4.10;1.70;;;;;;;-0.90;100.00;99455.38;5013759;28;20022;-83
2021/11/28 07:17:17;;;;;;;3.63;1.70;;;;;;;-1.03;100.00;99434.69;5018644;28;20038;-84
2021/11/28 07:19:43;;;;;;;3.42;1.40;;;;;;;-1.31;100.00;99415.59;5014660;28;20044;-83
2021/11/28 07:22:09;;;;;;;3.42;1.75;;;;;;;-1.69;100.00;99336.75;5015122;28;20043;-82
2021/11/28 07:24:35;;;;;;;2.92;1.90;;;;;;;-1.46;100.00;99379.25;5013573;28;20011;-83
2021/11/28 07:27:00;;;;;;;3.15;1.90;;;;;;;-1.12;100.00;99427.75;5012951;28;20010;-82
2021/11/28 07:29:26;;;;;;;5.30;2.15;;;;;;;-1.28;100.00;99405.56;5017976;28;20014;-86
2021/11/28 07:31:51;;;;;;;3.67;1.70;;;;;;;0.13;100.00;99638.44;5019619;28;20010;-85
2021/11/28 07:34:17;;;;;;;3.20;1.90;;;;;;;-1.06;100.00;99448.22;5038182;23;20050;-80
2021/11/28 08:33:31;;;;;;;3.08;1.70;;;;;;;0.38;100.00;99671.94;6057662;23;20903;-75
2021/11/28 09:30:17;;;;;;;2.78;1.50;;;;;;;-0.71;100.00;99486.84;5213933;23;20061;-85
2021/11/28 09:32:43;;;;;;;5.80;1.80;;;;;;;-0.99;100.00;99420.22;5017733;28;20026;-84
2021/11/28 09:35:10;;;;;;;3.00;1.70;;;;;;;-1.26;100.00;99381.63;5017658;28;20018;-84
2021/11/28 09:37:35;;;;;;;3.28;1.35;;;;;;;-0.49;100.00;99510.03;5018165;28;20022;-85
2021/11/28 09:40:03;;;;;;;2.05;1.38;;;;;;;-1.14;100.00;99417.31;5018000;28;20071;-85
2021/11/28 09:42:33;;;;;;;2.92;1.10;;;;;;;-0.97;100.00;99440.16;5222468;23;20058;-84
2021/11/28 09:45:03;;;;;;;2.85;1.70;;;;;;;0.37;100.00;99641.19;4998298;28;20082;-84
2021/11/28 09:47:32;;;;;;;4.90;1.30;;;;;;;-0.52;100.00;99498.97;5572673;23;20077;-83
2021/11/28 09:50:05;;;;;;;2.83;1.60;;;;;;;0.16;100.00;99625.72;5017000;28;20077;-83
2021/11/28 09:52:32;;;;;;;2.75;1.60;;;;;;;-0.87;100.00;99433.94;5015942;28;20007;-84
2021/11/28 09:55:03;;;;;;;2.50;1.67;;;;;;;0.85;100.00;99720.84;5011222;28;20387;-82
2021/11/28 09:57:29;;;;;;;2.30;1.27;;;;;;;-1.09;100.00;99417.69;5008604;28;20080;-82
2021/11/28 09:59:56;;;;;;;3.03;1.70;;;;;;;-0.91;100.00;99440.53;4999754;28;20030;-81
2021/11/28 10:02:23;;;;;;;6.10;1.50;;;;;;;0.82;100.00;99703.47;5003524;28;20356;-81
2021/11/28 10:04:49;;;;;;;2.67;1.60;;;;;;;-1.02;100.00;99412.63;5010048;28;20023;-82
2021/11/28 10:07:15;;;;;;;3.33;1.70;;;;;;;0.30;100.00;99613.72;5003277;28;20456;-80
2021/11/28 10:09:41;;;;;;;2.25;1.40;;;;;;;0.62;100.00;99649.16;4999669;28;20080;-82
2021/11/28 10:15:08;;;;;;;4.53;1.42;;;;;;;0.20;100.00;99549.56;5336415;23;20034;-85
2021/11/28 10:17:36;;;;;;;2.55;1.35;;;;;;;-0.74;100.00;99414.00;5000633;28;20039;-84
2021/11/28 10:20:07;;;;;;;3.42;1.30;;;;;;;-0.13;100.00;99511.59;5013703;28;20094;-84
2021/11/28 10:22:32;;;;;;;4.05;1.70;;;;;;;-0.77;100.00;99397.66;5012142;28;20037;-80
2021/11/28 10:25:11;;;;;;;2.80;1.42;;;;;;;-0.81;100.00;99397.16;4992473;28;20026;-80
2021/11/28 10:27:44;;;;;;;2.97;1.40;;;;;;;0.90;100.00;99679.66;4994706;28;20030;-82
2021/11/28 10:30:17;;;;;;;3.67;1.80;;;;;;;1.17;100.00;99698.88;4994374;28;20079;-81
2021/11/28 10:32:49;;;;;;;4.45;1.50;;;;;;;0.22;100.00;99556.31;4997391;28;20034;-83
2021/11/28 10:35:15;;;;;;;2.60;1.50;;;;;;;0.04;100.00;99529.19;5009805;28;20011;-82
2021/11/28 10:37:44;;;;;;;3.53;1.45;;;;;;;-0.15;100.00;99510.97;5007899;28;20072;-82
2021/11/28 10:40:11;;;;;;;3.72;1.67;;;;;;;0.22;100.00;99580.13;5010731;28;20030;-81
2021/11/28 10:42:38;;;;;;;5.50;2.10;;;;;;;0.88;100.00;99663.09;5006575;28;20045;-81
2021/11/28 10:45:23;;;;;;;3.28;1.88;;;;;;;1.32;100.00;99706.97;5006447;28;20026;-81
2021/11/28 10:47:56;;;;;;;3.35;1.60;;;;;;;0.06;100.00;99506.03;5006184;28;20034;-82
2021/11/28 10:50:27;;;;;;;6.53;1.52;;;;;;;0.28;100.00;99554.84;5006443;28;20089;-81
2021/11/28 10:53:06;;;;;;;3.67;1.67;;;;;;;0.58;100.00;99622.19;5009714;28;20030;-80
2021/11/28 10:55:39;;;;;;;4.70;1.10;;;;;;;-0.66;100.00;99418.50;5010707;28;20503;-80
2021/11/28 10:58:24;;;;;;;2.58;1.52;;;;;;;0.34;100.00;99572.72;5014164;28;20033;-82
2021/11/28 11:01:09;;;;;;;4.68;1.50;;;;;;;1.13;100.00;99702.84;5010540;28;20018;-83
2021/11/28 11:03:42;;;;;;;3.42;1.60;;;;;;;1.21;100.00;99712.59;5014871;28;20043;-83
2021/11/28 11:06:26;;;;;;;2.50;1.40;;;;;;;0.32;100.00;99566.75;5020695;28;20035;-83
2021/11/28 11:09:21;;;;;;;3.20;1.55;;;;;;;-0.29;100.00;99475.41;5008664;28;20061;-81
2021/11/28 11:11:47;;;;;;;2.83;1.48;;;;;;;1.09;100.00;99705.00;5004503;28;20034;-82
2021/11/28 11:14:14;;;;;;;2.55;1.45;;;;;;;1.23;100.00;99713.28;5012104;28;20110;-81
2021/11/28 11:16:46;;;;;;;3.35;1.38;;;;;;;-0.54;100.00;99454.19;5017953;28;20023;-83
2021/11/28 11:19:35;;;;;;;2.65;1.38;;;;;;;-0.51;100.00;99469.72;5017206;28;20033;-82
2021/11/28 11:22:18;;;;;;;6.18;1.75;;;;;;;0.42;100.00;99612.41;5017237;28;20010;-83
2021/11/28 11:45:29;;;;;;;3.15;1.58;;;;;;;-1.07;100.00;99372.66;5500819;23;20058;-84
2021/11/28 12:06:01;;;;;;;4.82;1.30;;;;;;;0.35;100.00;99586.75;5280698;23;20042;-84
2021/11/28 12:08:29;;;;;;;3.33;1.40;;;;;;;1.23;100.00;99740.59;4999227;28;20049;-84
2021/11/28 12:11:06;;;;;;;2.50;1.58;;;;;;;1.22;100.00;99732.81;5000110;28;20010;-85
2021/11/28 12:13:31;;;;;;;4.13;1.60;;;;;;;1.13;100.00;99734.63;4999927;28;20030;-83
2021/11/28 12:16:05;;;;;;;3.05;1.30;;;;;;;1.14;100.00;99737.13;4999940;28;20025;-84
2021/11/28 12:21:06;;;;;;;2.50;1.27;;;;;;;1.24;100.00;99744.09;5761989;23;20036;-84
2021/11/28 12:23:56;;;;;;;3.15;1.40;;;;;;;1.16;100.00;99750.22;5015744;28;20050;-83
2021/11/28 12:26:28;;;;;;;5.75;1.67;;;;;;;1.29;100.00;99755.84;5364476;23;20052;-80
2021/11/28 12:28:54;;;;;;;2.80;1.65;;;;;;;1.14;100.00;99738.94;4999313;28;20015;-86
2021/11/28 12:31:33;;;;;;;2.78;1.40;;;;;;;0.22;99.85;99574.81;5334343;23;20080;-85
2021/11/28 12:34:05;;;;;;;4.65;1.48;;;;;;;-0.50;99.62;99455.56;5018119;28;20027;-86
2021/11/28 12:36:55;;;;;;;4.32;1.58;;;;;;;1.27;99.84;99754.34;5014132;28;20042;-85
2021/11/28 12:39:42;;;;;;;3.45;1.75;;;;;;;1.20;100.00;99759.47;5014826;28;20030;-84
2021/11/28 12:42:10;;;;;;;3.67;1.40;;;;;;;0.51;100.00;99658.25;5491226;23;20055;-84
2021/11/28 12:44:58;;;;;;;3.22;1.60;;;;;;;-0.60;99.91;99480.44;4982216;28;20035;-84
2021/11/28 12:47:29;;;;;;;5.43;1.77;;;;;;;-0.77;100.00;99483.00;4981373;28;20031;-84
2021/11/28 12:50:17;;;;;;;3.03;1.33;;;;;;;-0.10;99.69;99585.31;4979922;28;20015;-83
2021/11/28 12:52:50;;;;;;;5.75;1.65;;;;;;;-0.03;99.86;99600.41;5517050;23;20069;-84
2021/11/28 12:55:26;;;;;;;4.10;1.83;;;;;;;0.49;100.00;99665.50;5018058;28;20045;-84
2021/11/28 12:57:58;;;;;;;4.07;1.80;;;;;;;1.25;100.00;99774.88;5013965;28;20018;-84
2021/11/28 13:00:24;;;;;;;3.47;1.65;;;;;;;1.16;100.00;99780.19;5018805;28;20040;-85
2021/11/28 13:02:58;;;;;;;5.53;2.45;;;;;;;1.15;100.00;99775.03;5016860;28;20130;-83
2021/11/28 13:05:35;;;;;;;2.92;1.42;;;;;;;1.08;99.79;99768.72;5017961;28;20022;-84
2021/11/28 13:08:00;;;;;;;2.33;1.42;;;;;;;1.10;100.00;99778.19;5016606;28;20054;-83
2021/11/28 13:10:48;;;;;;;5.70;2.10;;;;;;;-0.72;99.81;99493.94;5014391;28;20049;-81
2021/11/28 13:13:17;;;;;;;4.38;1.50;;;;;;;-0.82;100.00;99495.88;5017549;28;20018;-83
2021/11/28 13:16:04;;;;;;;4.95;1.88;;;;;;;1.06;99.91;99782.16;5015806;28;20026;-85
2021/11/28 13:18:31;;;;;;;4.15;1.70;;;;;;;1.10;100.00;99787.94;5017419;28;20065;-83
2021/11/28 13:21:19;;;;;;;3.22;1.55;;;;;;;0.96;100.00;99768.22;5013675;28;20026;-84
2021/11/28 13:26:25;;;;;;;2.42;1.65;;;;;;;0.87;100.00;99748.84;5610367;23;20042;-85
2021/11/28 13:28:53;;;;;;;2.65;1.35;;;;;;;1.02;100.00;99772.84;4998774;28;20066;-84
2021/11/28 13:31:22;;;;;;;5.65;1.50;;;;;;;0.97;100.00;99753.97;4997045;28;20090;-83
2021/11/28 13:33:57;;;;;;;3.20;1.80;;;;;;;0.98;100.00;99770.69;5014031;28;20102;-86
2021/11/28 13:44:29;;;;;;;2.20;1.38;;;;;;;-0.97;100.00;99495.63;5037295;23;20053;-85
2021/11/28 13:47:00;;;;;;;2.40;1.40;;;;;;;0.96;100.00;99791.22;5029795;28;20015;-86
2021/11/28 13:49:29;;;;;;;3.60;1.52;;;;;;;0.77;100.00;99779.94;5010038;28;20018;-86
2021/11/28 14:02:39;;;;;;;5.07;1.70;;;;;;;0.66;100.00;99788.16;5429099;23;20050;-84
2021/11/28 14:33:43;;;;;;;3.33;1.60;;;;;;;0.69;100.00;99822.25;5525885;23;20045;-83
2021/11/28 14:36:16;;;;;;;4.93;1.63;;;;;;;0.72;100.00;99842.28;5039744;28;20030;-85
2021/11/28 14:38:48;;;;;;;2.75;1.40;;;;;;;0.51;100.00;99814.41;5039734;28;20006;-86
2021/11/28 14:41:24;;;;;;;2.75;1.45;;;;;;;0.62;100.00;99829.16;5041080;28;20030;-85
2021/11/28 14:43:56;;;;;;;3.97;1.90;;;;;;;0.59;100.00;99811.78;5040821;28;20014;-85
2021/11/28 14:46:32;;;;;;;4.43;1.40;;;;;;;0.65;100.00;99845.56;5039441;28;20025;-86
2021/11/28 14:49:03;;;;;;;4.18;2.60;;;;;;;0.62;100.00;99848.53;5033732;28;20014;-85
2021/11/28 14:51:34;;;;;;;2.13;1.48;;;;;;;0.65;100.00;99844.75;5039532;28;20026;-86
2021/11/28 14:54:26;;;;;;;2.92;1.50;;;;;;;0.45;100.00;99823.78;5197589;23;20070;-85
2021/11/28 14:57:09;;;;;;;5.32;1.63;;;;;;;0.62;100.00;99845.06;5040543;28;20026;-86
2021/11/28 15:17:38;;;;;;;2.67;1.50;;;;;;;0.44;100.00;99864.50;5996338;23;20001;-85
2021/11/28 15:20:17;;;;;;;5.25;1.83;;;;;;;0.51;100.00;99877.94;4981222;28;20011;-84
2021/11/28 15:22:45;;;;;;;3.20;1.63;;;;;;;0.49;100.00;99881.72;4980513;28;20022;-85
2021/11/28 15:25:14;;;;;;;3.45;1.80;;;;;;;0.47;100.00;99884.53;5423839;23;20065;-85
2021/11/28 15:27:40;;;;;;;3.83;1.30;;;;;;;0.41;100.00;99870.09;5016163;28;20049;-84
2021/11/28 15:30:07;;;;;;;6.07;1.70;;;;;;;0.36;100.00;99868.91;5008984;28;20034;-85
2021/11/28 15:32:34;;;;;;;4.57;1.60;;;;;;;0.42;100.00;99886.81;5018772;28;20033;-83
2021/11/28 15:34:59;;;;;;;5.53;1.60;;;;;;;0.40;100.00;99884.31;5020122;28;20011;-84
2021/11/28 15:42:35;;;;;;;4.13;1.75;;;;;;;-0.87;100.00;99701.47;5109432;23;20038;-84
2021/11/28 15:45:01;;;;;;;2.92;1.75;;;;;;;-0.17;100.00;99803.75;5018942;28;20034;-84